createdAt,value
2022-08-19T00:01:53.357Z,25.80
2022-08-19T00:04:23.787Z,27.27
2022-08-19T00:06:50.893Z,25.40
2022-08-19T00:09:20.176Z,25.50
2022-08-19T00:11:47.005Z,24.38
2022-08-19T00:14:16.682Z,23.25
2022-08-19T00:16:48.197Z,25.75
2022-08-19T00:19:15.969Z,26.23
2022-08-19T00:21:44.298Z,24.50
2022-08-19T00:24:13.141Z,22.55
2022-08-19T00:26:40.301Z,26.42
2022-08-19T00:29:08.838Z,27.50
2022-08-19T00:31:36.301Z,24.30
2022-08-19T00:34:03.779Z,24.38
2022-08-19T00:36:30.887Z,27.42
2022-08-19T00:39:00.109Z,27.30
2022-08-19T00:41:31.576Z,24.30
2022-08-19T00:44:15.239Z,26.88
2022-08-19T00:46:44.644Z,27.02
2022-08-19T00:49:35.401Z,26.13
2022-08-19T00:52:15.636Z,26.17
2022-08-19T00:54:44.132Z,24.35
2022-08-19T00:57:17.552Z,28.75
2022-08-19T00:59:58.799Z,27.50
2022-08-19T01:02:30.622Z,25.13
2022-08-19T01:04:57.649Z,24.13
2022-08-19T01:07:24.512Z,24.63
2022-08-19T01:09:51.540Z,25.92
2022-08-19T01:12:21.144Z,25.77
2022-08-19T01:14:48.710Z,24.52
2022-08-19T01:17:16.961Z,29.38
2022-08-19T01:19:46.092Z,22.60
2022-08-19T01:22:31.569Z,28.02
2022-08-19T01:25:00.310Z,23.40
2022-08-19T01:27:27.163Z,24.20
2022-08-19T01:29:59.971Z,23.65
2022-08-19T01:32:33.355Z,27.52
2022-08-19T01:35:02.679Z,26.00
2022-08-19T01:37:31.302Z,23.90
2022-08-19T01:39:58.392Z,23.75
2022-08-19T01:42:30.621Z,24.42
2022-08-19T01:45:02.854Z,23.40
2022-08-19T01:47:29.584Z,31.05
2022-08-19T01:49:56.485Z,25.85
2022-08-19T01:52:25.698Z,25.05
2022-08-19T01:54:52.499Z,27.63
2022-08-19T01:57:19.458Z,21.65
2022-08-19T01:59:46.768Z,25.13
2022-08-19T02:02:13.531Z,25.67
2022-08-19T02:04:40.228Z,24.60
2022-08-19T02:07:09.027Z,22.35
2022-08-19T02:09:36.494Z,25.13
2022-08-19T02:12:04.718Z,29.60
2022-08-19T02:14:31.584Z,24.98
2022-08-19T02:17:00.830Z,24.33
2022-08-19T02:19:27.557Z,24.60
2022-08-19T02:21:54.397Z,26.42
2022-08-19T02:24:21.142Z,27.00
2022-08-19T02:26:47.946Z,28.67
2022-08-19T02:29:16.851Z,27.85
2022-08-19T02:31:43.782Z,27.42
2022-08-19T02:34:10.605Z,28.77
2022-08-19T02:36:37.484Z,27.00
2022-08-19T02:39:10.114Z,26.60
2022-08-19T02:41:39.180Z,26.58
2022-08-19T02:44:30.529Z,25.67
2022-08-19T02:46:53.093Z,25.35
2022-08-19T02:49:20.603Z,24.13
2022-08-19T02:51:48.066Z,25.30
2022-08-19T02:54:15.563Z,26.85
2022-08-19T02:56:43.770Z,27.30
2022-08-19T02:59:12.930Z,25.13
2022-08-19T03:01:42.405Z,24.33
2022-08-19T03:04:15.205Z,28.50
2022-08-19T03:06:44.448Z,27.80
2022-08-19T03:09:12.739Z,26.63
2022-08-19T03:11:39.775Z,24.17
2022-08-19T03:14:13.681Z,26.38
2022-08-19T03:16:47.901Z,27.42
2022-08-19T03:19:22.088Z,26.50
2022-08-19T03:21:49.020Z,24.77
2022-08-19T03:24:16.344Z,25.58
2022-08-19T03:26:45.662Z,27.08
2022-08-19T03:29:13.099Z,27.23
2022-08-19T03:31:50.958Z,27.95
2022-08-19T03:34:29.803Z,27.05
2022-08-19T03:36:59.032Z,27.33
2022-08-19T03:39:28.524Z,24.88
2022-08-19T03:42:32.484Z,25.00
2022-08-19T03:44:47.731Z,24.33
2022-08-19T03:47:17.809Z,23.90
2022-08-19T03:49:47.287Z,27.52
2022-08-19T03:52:15.098Z,22.80
2022-08-19T03:54:41.843Z,22.90
2022-08-19T03:57:09.875Z,24.27
2022-08-19T03:59:38.247Z,23.88
2022-08-19T04:02:11.793Z,23.80
2022-08-19T04:04:44.161Z,25.67
2022-08-19T04:07:16.763Z,27.27
2022-08-19T04:09:46.307Z,23.55
2022-08-19T04:12:13.226Z,20.75
2022-08-19T04:14:40.589Z,23.55
2022-08-19T04:17:09.813Z,24.35
2022-08-19T04:19:37.942Z,21.85
2022-08-19T04:22:05.035Z,20.05
2022-08-19T04:24:32.646Z,21.60
2022-08-19T04:27:02.035Z,20.75
2022-08-19T04:29:29.810Z,20.45
2022-08-19T04:31:58.138Z,18.98
2022-08-19T04:34:27.697Z,18.60
2022-08-19T04:36:56.132Z,18.55
2022-08-19T04:39:45.672Z,20.65
2022-08-19T04:42:31.233Z,20.73
2022-08-19T04:44:59.583Z,18.92
2022-08-19T04:47:47.092Z,17.77
2022-08-19T04:50:13.728Z,17.88
2022-08-19T04:52:43.601Z,17.65
2022-08-19T04:55:11.868Z,16.40
2022-08-19T04:57:41.223Z,16.90
2022-08-19T05:00:09.614Z,17.30
2022-08-19T05:02:36.760Z,16.98
2022-08-19T05:05:04.414Z,20.40
2022-08-19T05:07:31.746Z,16.67
2022-08-19T05:09:59.287Z,20.52
2022-08-19T05:12:29.230Z,15.90
2022-08-19T05:14:59.386Z,20.38
2022-08-19T05:17:29.615Z,16.65
2022-08-19T05:20:16.134Z,17.20
2022-08-19T05:22:44.717Z,16.33
2022-08-19T05:25:14.757Z,19.35
2022-08-19T05:27:43.269Z,17.58
2022-08-19T05:30:12.131Z,18.92
2022-08-19T05:32:39.639Z,18.85
2022-08-19T05:35:06.916Z,16.10
2022-08-19T05:37:35.834Z,17.75
2022-08-19T05:40:03.435Z,18.15
2022-08-19T05:42:34.597Z,18.98
2022-08-19T05:45:04.808Z,15.68
2022-08-19T05:47:31.485Z,17.15
2022-08-19T05:50:02.702Z,15.10
2022-08-19T05:52:31.940Z,18.50
2022-08-19T05:54:58.626Z,14.45
2022-08-19T05:57:25.742Z,15.85
2022-08-19T05:59:58.501Z,16.30
2022-08-19T06:02:27.289Z,18.00
2022-08-19T06:04:54.061Z,19.00
2022-08-19T06:07:20.836Z,17.95
2022-08-19T06:09:59.096Z,16.45
2022-08-19T06:12:29.639Z,20.23
2022-08-19T06:15:00.830Z,18.02
2022-08-19T06:17:28.281Z,17.05
2022-08-19T06:19:54.937Z,16.90
2022-08-19T06:22:21.766Z,19.02
2022-08-19T06:24:48.553Z,16.88
2022-08-19T06:27:16.912Z,14.85
2022-08-19T06:29:43.783Z,15.65
2022-08-19T06:32:10.591Z,16.02
2022-08-19T06:34:37.630Z,19.00
2022-08-19T06:37:06.545Z,14.75
2022-08-19T06:39:39.357Z,17.52
2022-08-19T06:42:10.955Z,15.35
2022-08-19T06:44:42.653Z,13.63
2022-08-19T06:47:14.760Z,20.65
2022-08-19T06:49:50.327Z,15.85
2022-08-19T06:52:20.849Z,16.80
2022-08-19T06:54:55.659Z,15.30
2022-08-19T06:57:24.601Z,16.70
2022-08-19T06:59:51.436Z,18.88
2022-08-19T07:04:52.607Z,14.93
2022-08-19T07:07:23.158Z,25.60
2022-08-19T07:09:59.280Z,17.52
2022-08-19T07:12:33.890Z,13.90
2022-08-19T07:15:04.792Z,13.13
2022-08-19T07:17:35.779Z,24.42
2022-08-19T07:20:07.093Z,13.93
2022-08-19T07:22:39.653Z,14.50
2022-08-19T07:25:10.859Z,13.60
2022-08-19T07:27:39.719Z,13.30
2022-08-19T07:30:11.747Z,13.45
2022-08-19T07:32:41.599Z,15.98
2022-08-19T07:35:11.417Z,14.88
2022-08-19T07:37:39.270Z,15.20
2022-08-19T07:40:07.868Z,16.13
2022-08-19T07:42:37.275Z,15.95
2022-08-19T07:45:05.404Z,17.90
2022-08-19T07:47:49.460Z,19.90
2022-08-19T07:50:20.622Z,14.82
2022-08-19T07:52:51.155Z,16.23
2022-08-19T07:55:42.404Z,12.27
2022-08-19T07:58:11.168Z,15.55
2022-08-19T08:00:41.221Z,18.70
2022-08-19T08:03:10.704Z,17.77
2022-08-19T08:05:55.889Z,14.32
2022-08-19T08:08:48.070Z,13.18
2022-08-19T08:11:19.921Z,12.25
2022-08-19T08:13:47.152Z,13.43
2022-08-19T08:16:32.120Z,13.63
2022-08-19T08:18:59.272Z,16.77
2022-08-19T08:21:28.643Z,12.30
2022-08-19T08:23:56.610Z,11.90
2022-08-19T08:26:24.446Z,16.10
2022-08-19T08:28:55.685Z,16.58
2022-08-19T08:31:23.054Z,16.38
2022-08-19T08:33:49.965Z,11.25
2022-08-19T08:36:17.035Z,13.43
2022-08-19T08:38:47.948Z,12.60
2022-08-19T08:41:51.020Z,13.93
2022-08-19T08:44:22.602Z,16.65
2022-08-19T08:46:56.314Z,10.68
2022-08-19T08:49:37.599Z,15.48
2022-08-19T08:52:16.513Z,11.20
2022-08-19T08:54:54.818Z,11.15
2022-08-19T08:57:37.078Z,14.43
2022-08-19T09:00:15.768Z,11.07
2022-08-19T09:02:50.355Z,13.52
2022-08-19T09:05:22.749Z,11.50
2022-08-19T09:08:14.726Z,13.95
2022-08-19T09:10:47.296Z,10.43
2022-08-19T09:13:59.975Z,14.40
2022-08-19T09:16:28.527Z,11.85
2022-08-19T09:19:01.224Z,13.02
2022-08-19T09:21:33.098Z,13.55
2022-08-19T09:24:00.624Z,9.48
2022-08-19T09:26:48.636Z,12.52
2022-08-19T09:29:17.951Z,13.77
2022-08-19T09:31:46.892Z,9.02
2022-08-19T09:34:21.120Z,13.45
2022-08-19T09:36:54.677Z,12.65
2022-08-19T09:39:22.611Z,11.68
2022-08-19T09:41:51.268Z,11.48
2022-08-19T09:44:21.287Z,9.48
2022-08-19T09:46:48.855Z,10.23
2022-08-19T09:49:18.323Z,7.82
2022-08-19T09:51:51.319Z,8.77
2022-08-19T09:54:23.661Z,7.30
2022-08-19T09:56:52.967Z,10.70
2022-08-19T09:59:19.938Z,7.53
2022-08-19T10:01:47.000Z,11.27
2022-08-19T10:04:20.191Z,9.82
2022-08-19T10:06:53.517Z,8.55
2022-08-19T10:09:26.112Z,8.73
2022-08-19T10:11:55.865Z,10.37
2022-08-19T10:14:24.370Z,9.57
2022-08-19T10:16:54.690Z,9.70
2022-08-19T10:19:25.825Z,8.68
2022-08-19T10:21:54.184Z,11.70
2022-08-19T10:24:21.442Z,9.77
2022-08-19T10:26:57.119Z,10.02
2022-08-19T10:29:32.470Z,12.75
2022-08-19T10:34:31.584Z,6.20
2022-08-19T10:37:01.747Z,7.95
2022-08-19T10:39:31.600Z,6.60
2022-08-19T10:41:59.778Z,9.02
2022-08-19T10:44:32.299Z,8.70
2022-08-19T10:47:02.215Z,7.95
2022-08-19T10:49:51.681Z,6.38
2022-08-19T10:52:38.905Z,5.95
2022-08-19T10:55:29.905Z,7.00
2022-08-19T10:58:02.473Z,5.88
2022-08-19T11:00:32.443Z,6.65
2022-08-19T11:03:03.936Z,6.30
2022-08-19T11:05:39.936Z,7.13
2022-08-19T11:08:23.557Z,6.60
2022-08-19T11:11:02.189Z,6.60
2022-08-19T11:13:30.696Z,7.35
2022-08-19T11:16:07.454Z,7.13
2022-08-19T11:18:37.829Z,7.00
2022-08-19T11:21:35.487Z,6.43
2022-08-19T11:24:06.780Z,8.45
2022-08-19T11:26:34.876Z,8.13
2022-08-19T11:29:02.357Z,7.32
2022-08-19T11:31:31.815Z,6.40
2022-08-19T11:34:04.073Z,7.18
2022-08-19T11:36:35.322Z,6.80
2022-08-19T11:39:02.831Z,7.30
2022-08-19T11:41:29.552Z,5.65
2022-08-19T11:43:58.730Z,7.95
2022-08-19T11:46:26.950Z,6.00
2022-08-19T11:48:53.667Z,8.35
2022-08-19T11:51:23.132Z,6.07
2022-08-19T11:53:51.315Z,6.00
2022-08-19T11:56:19.590Z,6.47
2022-08-19T11:58:46.561Z,5.28
2022-08-19T12:01:17.943Z,3.75
2022-08-19T12:03:46.623Z,4.93
2022-08-19T12:06:16.920Z,5.55
2022-08-19T12:08:45.473Z,7.68
2022-08-19T12:11:14.642Z,6.10
2022-08-19T12:13:43.456Z,4.68
2022-08-19T12:16:13.545Z,3.47
2022-08-19T12:18:47.338Z,5.97
2022-08-19T12:21:19.201Z,5.60
2022-08-19T12:23:46.325Z,3.25
2022-08-19T12:26:13.576Z,3.20
2022-08-19T12:28:40.711Z,6.40
2022-08-19T12:31:07.542Z,6.78
2022-08-19T12:33:36.471Z,6.60
2022-08-19T12:36:08.638Z,3.42
2022-08-19T12:38:35.780Z,3.75
2022-08-19T12:41:07.810Z,5.03
2022-08-19T12:43:36.111Z,4.47
2022-08-19T12:46:10.898Z,3.88
2022-08-19T12:48:38.552Z,4.32
2022-08-19T12:51:13.146Z,3.60
2022-08-19T12:53:40.700Z,6.13
2022-08-19T12:56:11.570Z,5.45
2022-08-19T12:58:39.750Z,4.55
2022-08-19T13:01:13.443Z,3.63
2022-08-19T13:03:42.711Z,3.97
2022-08-19T13:06:12.897Z,5.05
2022-08-19T13:08:40.003Z,4.00
2022-08-19T13:11:18.716Z,4.55
2022-08-19T13:13:49.441Z,4.80
2022-08-19T13:16:17.130Z,3.83
2022-08-19T13:18:48.405Z,6.50
2022-08-19T13:21:20.941Z,3.50
2022-08-19T13:23:56.955Z,10.43
2022-08-19T13:26:26.808Z,5.03
2022-08-19T13:29:11.990Z,6.75
2022-08-19T13:32:00.466Z,7.68
2022-08-19T13:34:34.730Z,4.45
2022-08-19T13:37:04.016Z,3.92
2022-08-19T13:39:33.193Z,4.80
2022-08-19T13:42:02.572Z,6.80
2022-08-19T13:44:32.165Z,5.35
2022-08-19T13:47:10.759Z,7.30
2022-08-19T13:49:37.787Z,7.30
2022-08-19T13:52:05.690Z,4.72
2022-08-19T13:54:32.462Z,5.05
2022-08-19T13:57:01.609Z,7.15
2022-08-19T13:59:30.776Z,5.47
2022-08-19T14:02:01.546Z,3.58
2022-08-19T14:04:28.475Z,4.22
2022-08-19T14:06:55.847Z,5.07
2022-08-19T14:09:22.619Z,7.20
2022-08-19T14:11:51.156Z,5.43
2022-08-19T14:14:17.906Z,6.55
2022-08-19T14:16:47.041Z,4.32
2022-08-19T14:19:16.191Z,5.82
2022-08-19T14:21:42.945Z,9.98
2022-08-19T14:24:09.837Z,8.70
2022-08-19T14:26:36.605Z,4.32
2022-08-19T14:29:03.359Z,7.45
2022-08-19T14:31:30.968Z,11.93
2022-08-19T14:33:57.802Z,5.65
2022-08-19T14:36:24.938Z,7.10
2022-08-19T14:38:51.701Z,6.30
2022-08-19T14:41:22.615Z,6.32
2022-08-19T14:43:51.343Z,6.75
2022-08-19T14:46:23.630Z,9.75
2022-08-19T14:48:52.664Z,25.58
2022-08-19T14:51:20.621Z,7.15
2022-08-19T14:53:50.221Z,8.23
2022-08-19T14:56:21.216Z,6.60
2022-08-19T14:58:48.026Z,5.53
2022-08-19T15:01:15.196Z,6.63
2022-08-19T15:03:42.215Z,18.38
2022-08-19T15:06:09.640Z,18.25
2022-08-19T15:08:44.070Z,10.70
2022-08-19T15:11:15.606Z,5.68
2022-08-19T15:13:43.413Z,9.82
2022-08-19T15:16:17.932Z,20.70
2022-08-19T15:18:47.203Z,21.45
2022-08-19T15:21:26.442Z,5.72
2022-08-19T15:23:56.446Z,6.43
2022-08-19T15:26:28.414Z,6.35
2022-08-19T15:28:55.630Z,8.10
2022-08-19T15:31:28.052Z,4.28
2022-08-19T15:33:59.733Z,23.63
2022-08-19T15:36:27.418Z,8.45
2022-08-19T15:38:55.615Z,4.97
2022-08-19T15:41:26.609Z,9.55
2022-08-19T15:44:13.441Z,6.75
2022-08-19T15:46:42.058Z,5.05
2022-08-19T15:49:09.979Z,4.50
2022-08-19T15:51:38.994Z,5.32
2022-08-19T15:54:08.586Z,4.00
2022-08-19T15:56:58.245Z,3.92
2022-08-19T15:59:46.837Z,6.38
2022-08-19T16:02:33.795Z,5.90
2022-08-19T16:05:19.180Z,4.10
2022-08-19T16:07:45.954Z,6.82
2022-08-19T16:10:27.482Z,6.15
2022-08-19T16:12:56.115Z,6.00
2022-08-19T16:15:26.181Z,5.78
2022-08-19T16:17:56.986Z,7.50
2022-08-19T16:20:24.759Z,5.80
2022-08-19T16:22:52.644Z,6.25
2022-08-19T16:25:19.503Z,6.00
2022-08-19T16:27:54.274Z,7.10
2022-08-19T16:30:33.018Z,7.20
2022-08-19T16:33:04.449Z,9.65
2022-08-19T16:35:31.140Z,7.15
2022-08-19T16:37:57.953Z,7.53
2022-08-19T16:40:25.217Z,13.18
2022-08-19T16:42:53.650Z,10.32
2022-08-19T16:45:21.870Z,6.38
2022-08-19T16:47:50.130Z,8.63
2022-08-19T16:50:25.278Z,9.05
2022-08-19T16:53:03.354Z,9.70
2022-08-19T16:55:30.233Z,6.00
2022-08-19T16:58:04.369Z,6.25
2022-08-19T17:00:31.569Z,7.97
2022-08-19T17:03:14.787Z,9.77
2022-08-19T17:05:53.350Z,7.75
2022-08-19T17:08:29.853Z,7.03
2022-08-19T17:11:17.028Z,6.55
2022-08-19T17:13:45.114Z,7.55
2022-08-19T17:16:16.460Z,6.63
2022-08-19T17:18:52.445Z,4.82
2022-08-19T17:21:23.281Z,4.55
2022-08-19T17:23:50.510Z,7.80
2022-08-19T17:26:18.792Z,9.43
2022-08-19T17:28:49.533Z,5.05
2022-08-19T17:31:18.401Z,5.00
2022-08-19T17:33:48.515Z,5.97
2022-08-19T17:36:17.633Z,5.07
2022-08-19T17:38:45.016Z,4.18
2022-08-19T17:41:11.920Z,6.43
2022-08-19T17:43:42.852Z,12.75
2022-08-19T17:46:18.738Z,3.70
2022-08-19T17:48:52.086Z,5.20
2022-08-19T17:51:35.719Z,4.97
2022-08-19T17:54:05.458Z,3.72
2022-08-19T17:56:32.226Z,6.05
2022-08-19T17:59:00.452Z,3.97
2022-08-19T18:01:48.396Z,6.82
2022-08-19T18:04:24.696Z,6.95
2022-08-19T18:06:53.106Z,4.93
2022-08-19T18:09:28.547Z,4.55
2022-08-19T18:12:03.177Z,4.35
2022-08-19T18:14:36.413Z,6.85
2022-08-19T18:17:10.755Z,7.28
2022-08-19T18:19:42.115Z,8.77
2022-08-19T18:22:24.330Z,8.57
2022-08-19T18:24:51.684Z,6.95
2022-08-19T18:27:18.982Z,4.18
2022-08-19T18:29:45.918Z,3.78
2022-08-19T18:32:13.253Z,7.32
2022-08-19T18:34:42.703Z,7.00
2022-08-19T18:37:10.467Z,5.95
2022-08-19T18:39:55.751Z,7.32
2022-08-19T18:42:41.172Z,8.68
2022-08-19T18:45:28.165Z,5.88
2022-08-19T18:48:26.972Z,7.47
2022-08-19T18:50:59.551Z,7.43
2022-08-19T18:53:29.705Z,7.15
2022-08-19T18:55:57.707Z,8.57
2022-08-19T18:58:33.524Z,5.72
2022-08-19T19:01:11.098Z,7.80
2022-08-19T19:03:42.484Z,6.13
2022-08-19T19:06:09.579Z,6.70
2022-08-19T19:08:40.915Z,7.05
2022-08-19T19:11:09.986Z,8.07
2022-08-19T19:13:40.293Z,9.98
2022-08-19T19:16:11.569Z,4.97
2022-08-19T19:18:39.205Z,6.00
2022-08-19T19:21:07.915Z,5.80
2022-08-19T19:23:34.769Z,9.65
2022-08-19T19:26:01.647Z,10.77
2022-08-19T19:28:29.287Z,6.50
2022-08-19T19:31:00.458Z,7.88
2022-08-19T19:33:28.338Z,12.05
2022-08-19T19:35:55.431Z,5.25
2022-08-19T19:38:27.955Z,5.63
2022-08-19T19:40:54.837Z,3.90
2022-08-19T19:43:21.782Z,6.05
2022-08-19T19:45:49.001Z,4.88
2022-08-19T19:48:16.467Z,7.75
2022-08-19T19:50:46.484Z,4.25
2022-08-19T19:53:24.675Z,3.63
2022-08-19T19:56:02.155Z,4.38
2022-08-19T19:58:30.834Z,8.43
2022-08-19T20:01:02.496Z,4.20
2022-08-19T20:03:36.357Z,4.65
2022-08-19T20:06:03.218Z,4.00
2022-08-19T20:08:50.954Z,4.18
2022-08-19T20:11:43.719Z,3.13
2022-08-19T20:14:24.016Z,4.78
2022-08-19T20:16:52.116Z,4.93
2022-08-19T20:19:22.278Z,3.58
2022-08-19T20:21:52.521Z,3.10
2022-08-19T20:24:32.410Z,3.33
2022-08-19T20:27:00.622Z,3.03
2022-08-19T20:29:38.811Z,2.30
2022-08-19T20:32:07.634Z,4.63
2022-08-19T20:34:37.281Z,1.70
2022-08-19T20:37:04.662Z,2.38
2022-08-19T20:39:31.477Z,2.60
2022-08-19T20:41:58.343Z,4.80
2022-08-19T20:44:25.415Z,2.85
2022-08-19T20:46:54.721Z,4.57
2022-08-19T20:49:23.089Z,3.47
2022-08-19T20:51:55.217Z,2.47
2022-08-19T20:54:22.061Z,2.13
2022-08-19T20:56:48.892Z,2.58
2022-08-19T20:59:15.597Z,1.50
2022-08-19T21:01:42.349Z,2.78
2022-08-19T21:04:09.165Z,6.38
2022-08-19T21:06:42.226Z,3.83
2022-08-19T21:09:12.381Z,1.67
2022-08-19T21:11:41.629Z,1.55
2022-08-19T21:14:08.757Z,2.85
2022-08-19T21:16:35.947Z,3.83
2022-08-19T21:19:03.486Z,2.00
2022-08-19T21:21:31.078Z,1.88
2022-08-19T21:24:00.100Z,2.00
2022-08-19T21:26:27.154Z,1.65
2022-08-19T21:28:53.886Z,6.13
2022-08-19T21:31:21.106Z,3.70
2022-08-19T21:33:47.980Z,4.03
2022-08-19T21:36:14.670Z,3.35
2022-08-19T21:38:43.998Z,3.17
2022-08-19T21:41:13.588Z,1.70
2022-08-19T21:43:40.321Z,2.92
2022-08-19T21:46:07.785Z,3.05
2022-08-19T21:48:37.413Z,2.40
2022-08-19T21:51:04.663Z,2.80
2022-08-19T21:53:34.507Z,2.13
2022-08-19T21:56:06.548Z,3.70
2022-08-19T21:58:34.302Z,1.42
2022-08-19T22:01:05.832Z,2.63
2022-08-19T22:03:37.204Z,3.33
2022-08-19T22:06:04.480Z,1.20
2022-08-19T22:08:31.545Z,2.10
2022-08-19T22:11:01.328Z,2.00
2022-08-19T22:13:28.100Z,3.22
2022-08-19T22:15:55.289Z,1.10
2022-08-19T22:18:22.098Z,3.80
2022-08-19T22:20:49.065Z,1.58
2022-08-19T22:23:15.796Z,1.58
2022-08-19T22:25:45.553Z,3.83
2022-08-19T22:29:38.669Z,1.33
2022-08-19T22:32:23.025Z,3.72
2022-08-19T22:34:53.522Z,1.05
2022-08-19T22:37:20.257Z,2.92
2022-08-19T22:39:49.531Z,3.28
2022-08-19T22:42:21.972Z,1.95
2022-08-19T22:44:49.571Z,2.55
2022-08-19T22:47:17.132Z,2.28
2022-08-19T22:49:44.821Z,2.70
2022-08-19T22:52:18.115Z,5.30
2022-08-19T22:54:52.723Z,1.60
2022-08-19T22:57:21.095Z,1.20
2022-08-19T22:59:50.628Z,1.85
2022-08-19T23:02:25.147Z,2.17
2022-08-19T23:04:52.660Z,3.63
2022-08-19T23:07:23.593Z,4.80
2022-08-19T23:09:50.816Z,2.58
2022-08-19T23:12:30.633Z,1.50
2022-08-19T23:15:24.014Z,1.77
2022-08-19T23:17:52.453Z,3.93
2022-08-19T23:20:22.522Z,3.10
2022-08-19T23:22:50.894Z,1.20
2022-08-19T23:25:23.134Z,3.65
2022-08-19T23:28:08.334Z,1.35
2022-08-19T23:30:43.780Z,2.20
2022-08-19T23:33:24.953Z,2.72
2022-08-19T23:35:54.077Z,5.72
2022-08-19T23:38:23.225Z,1.58
2022-08-19T23:40:52.459Z,1.48
2022-08-19T23:43:24.479Z,1.10
2022-08-19T23:45:53.693Z,2.07
2022-08-19T23:48:25.349Z,2.08
2022-08-19T23:50:56.525Z,1.67
2022-08-19T23:53:23.653Z,1.20
2022-08-19T23:55:50.456Z,1.30
2022-08-19T23:58:20.206Z,1.20
